Time;durP1;ratioP1;P1;durP2;ratioP2;P2;SDS_P1;SDS_P2;PMS_P1;PMS_P2;Temp;Humidity;BMP_temperature;BMP_pressure;BME280_temperature;BME280_humidity;BME280_pressure;Samples;Min_cycle;Max_cycle;Signal;HPM_P1;HPM_P2
2022/10/30 00:02:45;;;;;;;9.57;4.90;;;;;14.50;101162.00;;;;10305463;28;20300;-76
2022/10/30 00:07:48;;;;;;;9.40;4.80;;;;;14.40;101167.00;;;;10302343;28;20212;-76
2022/10/30 00:12:50;;;;;;;11.70;5.00;;;;;14.40;101164.00;;;;10306935;28;20204;-76
2022/10/30 00:17:52;;;;;;;7.60;4.07;;;;;14.40;101165.00;;;;10275252;28;20195;-76
2022/10/30 00:22:55;;;;;;;13.30;5.17;;;;;14.40;101152.00;;;;10309079;28;20200;-77
2022/10/30 00:27:57;;;;;;;11.27;4.93;;;;;14.30;101151.00;;;;10295534;28;20210;-77
2022/10/30 00:33:01;;;;;;;9.97;4.10;;;;;14.40;101155.00;;;;10246440;28;20199;-77
2022/10/30 00:38:03;;;;;;;13.27;4.83;;;;;14.40;101154.00;;;;10291499;28;20197;-76
2022/10/30 00:43:25;;;;;;;14.27;5.17;;;;;14.50;101149.00;;;;10275659;28;20196;-76
2022/10/30 00:48:27;;;;;;;15.87;5.27;;;;;14.60;101143.00;;;;10299201;28;20632;-76
2022/10/30 00:53:30;;;;;;;8.77;4.80;;;;;14.60;101148.00;;;;10270586;28;20382;-76
2022/10/30 00:58:42;;;;;;;12.43;5.27;;;;;14.40;101154.00;;;;10298057;28;20189;-76
2022/10/30 01:03:48;;;;;;;14.70;5.50;;;;;14.40;101147.00;;;;10301001;28;20196;-77
2022/10/30 01:08:53;;;;;;;12.43;4.90;;;;;14.30;101153.00;;;;10297193;28;20212;-78
2022/10/30 01:14:05;;;;;;;8.27;5.37;;;;;14.30;101148.00;;;;10321077;28;20220;-78
2022/10/30 01:19:22;;;;;;;10.23;5.20;;;;;14.20;101153.00;;;;10298197;28;20192;-77
2022/10/30 01:24:40;;;;;;;13.77;5.57;;;;;14.10;101155.00;;;;10302165;28;20208;-78
2022/10/30 01:30:24;;;;;;;15.93;6.23;;;;;14.00;101151.00;;;;10307768;28;20722;-78
2022/10/30 01:35:31;;;;;;;15.27;5.27;;;;;14.00;101153.00;;;;10296672;28;20197;-78
2022/10/30 01:40:33;;;;;;;11.37;4.97;;;;;14.10;101162.00;;;;10329752;28;20208;-78
2022/10/30 01:45:53;;;;;;;9.93;6.23;;;;;14.40;101168.00;;;;10296293;28;20698;-78
2022/10/30 01:51:07;;;;;;;11.60;5.07;;;;;14.60;101168.00;;;;10340300;28;20241;-78
2022/10/30 01:56:48;;;;;;;9.10;5.00;;;;;14.50;101160.00;;;;10307528;28;20848;-78
2022/10/30 02:01:50;;;;;;;12.83;5.03;;;;;14.40;101169.00;;;;10265247;28;20240;-77
2022/10/30 02:06:53;;;;;;;7.73;4.50;;;;;14.20;101164.00;;;;10279550;28;20220;-77
2022/10/30 02:11:57;;;;;;;11.13;5.60;;;;;14.10;101162.00;;;;10316936;28;20201;-77
2022/10/30 02:17:01;;;;;;;10.27;5.73;;;;;14.10;101153.00;;;;10302192;28;20192;-78
2022/10/30 02:22:04;;;;;;;13.70;5.87;;;;;14.10;101150.00;;;;10298559;28;20270;-78
2022/10/30 02:27:06;;;;;;;9.47;5.90;;;;;14.10;101164.00;;;;10300767;28;20212;-78
2022/10/30 02:32:08;;;;;;;10.87;5.73;;;;;14.00;101152.00;;;;10310503;28;20193;-78
2022/10/30 02:37:09;;;;;;;14.77;5.87;;;;;14.10;101157.00;;;;10336889;28;20247;-78
2022/10/30 02:42:13;;;;;;;12.30;5.57;;;;;14.20;101161.00;;;;10266248;28;20191;-78
2022/10/30 02:47:15;;;;;;;11.37;5.17;;;;;14.30;101149.00;;;;10285186;28;20208;-79
2022/10/30 02:52:17;;;;;;;11.00;5.93;;;;;14.20;101147.00;;;;10289666;28;20213;-78
2022/10/30 02:57:19;;;;;;;10.03;4.83;;;;;14.10;101162.00;;;;10301430;28;20193;-78
2022/10/30 03:02:21;;;;;;;13.43;6.10;;;;;14.00;101147.00;;;;10325021;28;20204;-77
2022/10/30 03:07:24;;;;;;;12.63;5.50;;;;;14.00;101151.00;;;;10312063;28;20220;-77
2022/10/30 03:12:25;;;;;;;12.60;5.60;;;;;13.90;101163.00;;;;10308638;28;20200;-78
2022/10/30 03:17:27;;;;;;;11.83;5.17;;;;;13.80;101166.00;;;;10308470;28;20267;-78
2022/10/30 03:22:29;;;;;;;7.63;4.80;;;;;13.70;101162.00;;;;10313791;28;20200;-77
2022/10/30 03:27:31;;;;;;;10.70;5.13;;;;;13.60;101164.00;;;;10308245;28;20212;-77
2022/10/30 03:32:33;;;;;;;14.03;5.97;;;;;13.50;101173.00;;;;10348876;28;20279;-78
2022/10/30 03:37:35;;;;;;;13.80;6.00;;;;;13.50;101166.00;;;;10307018;28;20188;-78
2022/10/30 03:42:39;;;;;;;13.67;5.63;;;;;13.40;101167.00;;;;10308093;28;20536;-78
2022/10/30 03:47:42;;;;;;;21.20;7.77;;;;;13.30;101166.00;;;;10323410;28;20206;-77
2022/10/30 03:52:44;;;;;;;15.67;5.60;;;;;13.30;101164.00;;;;10339798;28;20216;-78
2022/10/30 03:57:46;;;;;;;11.83;5.70;;;;;13.20;101155.00;;;;10294927;28;20211;-78
2022/10/30 04:02:51;;;;;;;14.30;6.37;;;;;13.10;101156.00;;;;10322746;28;20652;-78
2022/10/30 04:07:58;;;;;;;11.17;5.67;;;;;13.20;101144.00;;;;10306167;28;20277;-78
2022/10/30 04:13:05;;;;;;;12.93;5.40;;;;;13.30;101134.00;;;;10337799;28;20193;-78
2022/10/30 04:18:10;;;;;;;13.63;6.47;;;;;13.40;101129.00;;;;10333446;28;20219;-78
2022/10/30 04:23:15;;;;;;;15.30;5.70;;;;;13.50;101133.00;;;;10288466;28;20211;-78
2022/10/30 04:28:20;;;;;;;14.27;6.00;;;;;13.60;101138.00;;;;10335004;28;20227;-78
2022/10/30 04:33:21;;;;;;;13.43;5.30;;;;;13.60;101144.00;;;;10321154;28;20200;-78
2022/10/30 04:38:24;;;;;;;11.17;5.70;;;;;13.70;101139.00;;;;10319662;28;20291;-78
2022/10/30 04:43:26;;;;;;;10.73;6.07;;;;;13.80;101128.00;;;;10288709;28;20198;-78
2022/10/30 04:48:28;;;;;;;12.30;6.43;;;;;13.80;101133.00;;;;10305522;28;20783;-78
2022/10/30 04:53:30;;;;;;;12.90;6.20;;;;;13.70;101135.00;;;;10319189;28;20359;-78
2022/10/30 04:58:39;;;;;;;13.23;5.93;;;;;13.70;101140.00;;;;10288013;28;20216;-78
2022/10/30 05:03:42;;;;;;;12.50;5.73;;;;;13.50;101146.00;;;;10304024;28;20238;-78
2022/10/30 05:08:49;;;;;;;10.77;5.77;;;;;13.50;101131.00;;;;10297992;28;20231;-78
2022/10/30 05:14:02;;;;;;;11.33;6.20;;;;;13.40;101135.00;;;;10276001;28;20207;-78
2022/10/30 05:19:04;;;;;;;11.70;6.73;;;;;13.30;101137.00;;;;10328785;28;20552;-77
2022/10/30 05:24:08;;;;;;;14.93;6.40;;;;;13.20;101134.00;;;;10288369;28;20188;-78
2022/10/30 05:29:16;;;;;;;12.13;6.90;;;;;13.10;101131.00;;;;10303709;28;20271;-78
2022/10/30 05:34:18;;;;;;;14.10;6.63;;;;;13.00;101124.00;;;;10299104;28;20193;-78
2022/10/30 05:39:23;;;;;;;15.73;6.70;;;;;13.00;101131.00;;;;10301074;28;20196;-78
2022/10/30 05:44:26;;;;;;;16.00;7.20;;;;;13.10;101126.00;;;;10319854;28;20251;-78
2022/10/30 05:49:48;;;;;;;16.67;6.80;;;;;13.10;101120.00;;;;10319524;28;20208;-78
2022/10/30 05:54:53;;;;;;;13.30;6.80;;;;;13.00;101118.00;;;;10318360;28;20575;-78
2022/10/30 06:00:04;;;;;;;16.63;6.87;;;;;12.90;101118.00;;;;10288616;28;20197;-78
2022/10/30 06:05:16;;;;;;;15.03;7.57;;;;;12.80;101110.00;;;;10336361;28;20242;-78
2022/10/30 06:10:18;;;;;;;12.67;6.77;;;;;12.80;101104.00;;;;10303066;28;20205;-78
2022/10/30 06:15:39;;;;;;;18.47;7.67;;;;;13.00;101109.00;;;;10303608;28;20195;-78
2022/10/30 06:20:42;;;;;;;16.47;6.63;;;;;13.20;101113.00;;;;10301273;28;20193;-78
2022/10/30 06:26:00;;;;;;;21.70;7.07;;;;;13.20;101111.00;;;;10301548;28;20268;-78
2022/10/30 06:31:09;;;;;;;20.17;6.63;;;;;13.10;101120.00;;;;10291339;28;20219;-78
2022/10/30 06:36:12;;;;;;;15.13;7.37;;;;;13.10;101125.00;;;;10292241;28;20259;-78
2022/10/30 06:41:15;;;;;;;16.60;6.50;;;;;13.10;101126.00;;;;10308888;28;20547;-77
2022/10/30 06:46:34;;;;;;;13.73;6.67;;;;;13.00;101108.00;;;;10353825;28;20224;-77
2022/10/30 06:51:36;;;;;;;10.13;5.97;;;;;13.00;101112.00;;;;10325076;28;20187;-78
2022/10/30 06:56:38;;;;;;;14.40;6.67;;;;;13.10;101119.00;;;;10308092;28;20204;-78
2022/10/30 07:01:57;;;;;;;16.43;7.17;;;;;13.20;101116.00;;;;10332256;28;20252;-78
2022/10/30 07:07:13;;;;;;;15.33;6.13;;;;;13.30;101115.00;;;;10307578;28;20226;-78
2022/10/30 07:12:15;;;;;;;16.40;6.73;;;;;13.50;101101.00;;;;10303963;28;20196;-78
2022/10/30 07:17:29;;;;;;;13.23;6.97;;;;;13.60;101093.00;;;;10338801;28;20654;-78
2022/10/30 07:22:38;;;;;;;11.80;6.40;;;;;13.80;101083.00;;;;10325611;28;20228;-78
2022/10/30 07:27:47;;;;;;;14.20;6.70;;;;;14.00;101093.00;;;;10315751;28;20215;-78
2022/10/30 07:33:10;;;;;;;13.37;6.87;;;;;14.20;101099.00;;;;10307436;28;20878;-78
2022/10/30 07:38:38;;;;;;;17.93;7.13;;;;;14.30;101095.00;;;;10287007;28;20208;-78
2022/10/30 07:43:55;;;;;;;12.13;6.50;;;;;14.50;101117.00;;;;10307021;28;20279;-79
2022/10/30 07:49:19;;;;;;;9.50;5.47;;;;;14.80;101117.00;;;;10310784;28;20231;-78
2022/10/30 07:54:28;;;;;;;15.13;6.67;;;;;15.20;101120.00;;;;10339179;28;20294;-78
2022/10/30 07:59:35;;;;;;;11.93;5.63;;;;;15.30;101116.00;;;;10290960;28;20192;-78
2022/10/30 08:04:56;;;;;;;9.30;5.70;;;;;15.60;101115.00;;;;10306452;28;20322;-78
2022/10/30 08:10:27;;;;;;;12.30;6.40;;;;;15.80;101109.00;;;;10351918;28;20236;-78
2022/10/30 08:15:29;;;;;;;17.85;6.35;;;;;16.10;101113.00;;;;10313601;28;20196;-77
2022/10/30 08:20:31;;;;;;;11.02;6.57;;;;;16.50;101110.00;;;;10344695;28;20201;-75
2022/10/30 08:25:33;;;;;;;13.40;6.57;;;;;17.10;101120.00;;;;10305175;28;20204;-77
2022/10/30 08:30:36;;;;;;;12.00;5.35;;;;;17.40;101134.00;;;;10299142;28;20267;-77
2022/10/30 08:35:50;;;;;;;15.57;5.13;;;;;17.40;101126.00;;;;10283773;28;20295;-78
2022/10/30 08:40:52;;;;;;;13.20;5.50;;;;;17.40;101129.00;;;;10303258;28;20180;-76
2022/10/30 08:45:57;;;;;;;13.65;5.18;;;;;17.40;101125.00;;;;10281177;28;20200;-76
2022/10/30 08:51:00;;;;;;;11.57;5.18;;;;;17.40;101136.00;;;;10282239;28;20781;-78
2022/10/30 08:56:09;;;;;;;10.50;4.63;;;;;17.40;101153.00;;;;10328783;28;20231;-78
2022/10/30 09:01:35;;;;;;;11.95;6.07;;;;;18.00;101139.00;;;;10285534;28;20223;-76
2022/10/30 09:06:52;;;;;;;15.13;5.85;;;;;18.70;101124.00;;;;10297600;28;20602;-76
2022/10/30 09:12:18;;;;;;;14.98;5.70;;;;;19.00;101119.00;;;;10311853;28;20220;-76
2022/10/30 09:17:21;;;;;;;14.15;5.07;;;;;19.30;101122.00;;;;10336223;28;20187;-76
2022/10/30 09:22:25;;;;;;;11.57;4.35;;;;;19.50;101142.00;;;;10336034;28;20206;-77
2022/10/30 09:27:27;;;;;;;10.43;5.05;;;;;19.80;101144.00;;;;10352444;28;20258;-76
2022/10/30 09:32:32;;;;;;;13.88;5.38;;;;;20.10;101132.00;;;;10331455;28;20251;-76
2022/10/30 09:37:39;;;;;;;13.45;5.15;;;;;20.10;101129.00;;;;10296959;28;20199;-76
2022/10/30 09:42:50;;;;;;;10.50;4.88;;;;;20.40;101123.00;;;;10328176;28;20207;-76
2022/10/30 09:48:09;;;;;;;10.02;4.15;;;;;20.50;101127.00;;;;10296610;28;20193;-75
2022/10/30 09:53:55;;;;;;;9.77;4.32;;;;;20.90;101111.00;;;;10327129;28;20255;-77
2022/10/30 09:59:40;;;;;;;11.85;5.03;;;;;21.20;101115.00;;;;10310806;28;20187;-76
2022/10/30 10:04:48;;;;;;;13.05;4.25;;;;;21.40;101126.00;;;;10315676;28;20224;-76
2022/10/30 10:10:20;;;;;;;17.83;4.65;;;;;21.60;101129.00;;;;10334997;28;20210;-76
2022/10/30 10:15:45;;;;;;;9.80;4.00;;;;;21.40;101130.00;;;;10364482;28;20198;-76
2022/10/30 10:20:51;;;;;;;10.18;3.92;;;;;21.70;101135.00;;;;10358736;28;20187;-76
2022/10/30 10:25:53;;;;;;;12.63;4.93;;;;;21.40;101133.00;;;;10346336;28;20675;-77
2022/10/30 10:31:11;;;;;;;10.82;4.10;;;;;21.30;101120.00;;;;10301910;28;20220;-76
2022/10/30 10:36:27;;;;;;;12.75;4.97;;;;;21.50;101121.00;;;;10335094;28;20188;-76
2022/10/30 10:41:52;;;;;;;8.80;4.38;;;;;21.60;101132.00;;;;10285201;28;20239;-76
2022/10/30 10:47:13;;;;;;;13.55;4.40;;;;;21.60;101123.00;;;;10285379;28;20856;-76
2022/10/30 10:52:27;;;;;;;17.55;4.45;;;;;21.60;101115.00;;;;10317316;28;20742;-76
2022/10/30 10:57:33;;;;;;;11.23;5.80;;;;;21.60;101111.00;;;;10260833;28;20204;-75
2022/10/30 11:02:57;;;;;;;13.82;5.50;;;;;21.60;101121.00;;;;10277277;28;20177;-76
2022/10/30 11:08:12;;;;;;;15.43;5.03;;;;;21.60;101119.00;;;;10300367;28;20295;-75
2022/10/30 11:13:14;;;;;;;10.25;4.40;;;;;21.60;101116.00;;;;10330865;28;20207;-75
2022/10/30 11:18:16;;;;;;;14.10;5.45;;;;;21.50;101120.00;;;;10329163;28;20308;-76
2022/10/30 11:23:32;;;;;;;17.70;5.20;;;;;21.60;101126.00;;;;10332279;28;20243;-76
2022/10/30 11:28:42;;;;;;;15.63;6.20;;;;;21.70;101127.00;;;;10315847;28;20254;-76
2022/10/30 11:33:45;;;;;;;16.13;6.47;;;;;21.90;101117.00;;;;10332012;28;20192;-76
2022/10/30 11:38:47;;;;;;;14.85;6.13;;;;;21.80;101111.00;;;;10316420;28;20192;-76
2022/10/30 11:43:49;;;;;;;13.15;6.15;;;;;21.70;101110.00;;;;10330970;28;20195;-76
2022/10/30 11:48:53;;;;;;;16.33;6.82;;;;;22.10;101106.00;;;;10294161;28;20212;-76
2022/10/30 11:53:56;;;;;;;17.60;7.28;;;;;22.30;101100.00;;;;10283718;28;20227;-76
2022/10/30 11:59:00;;;;;;;17.08;6.60;;;;;22.20;101104.00;;;;10315617;28;20200;-76
2022/10/30 12:04:15;;;;;;;13.20;6.30;;;;;22.10;101095.00;;;;10315520;28;20200;-76
2022/10/30 12:09:21;;;;;;;15.75;5.28;;;;;21.90;101116.00;;;;10315392;28;20204;-76
2022/10/30 12:14:26;;;;;;;13.00;6.18;;;;;21.80;101103.00;;;;10331251;28;20275;-77
2022/10/30 12:19:29;;;;;;;16.35;5.88;;;;;22.00;101095.00;;;;10354376;28;20254;-76
2022/10/30 12:24:34;;;;;;;16.67;6.88;;;;;22.30;101109.00;;;;10354894;28;20192;-76
2022/10/30 12:30:01;;;;;;;13.93;6.35;;;;;22.50;101104.00;;;;10316689;28;20699;-77
2022/10/30 12:35:40;;;;;;;13.98;5.68;;;;;22.40;101096.00;;;;10284868;28;20216;-76
2022/10/30 12:41:03;;;;;;;14.65;5.38;;;;;22.50;101101.00;;;;10281707;28;20220;-76
2022/10/30 12:46:34;;;;;;;15.77;5.97;;;;;22.50;101100.00;;;;10298220;28;20203;-76
2022/10/30 12:51:57;;;;;;;10.60;4.45;;;;;22.70;101096.00;;;;10248813;28;20228;-77
2022/10/30 12:57:11;;;;;;;13.57;4.82;;;;;23.20;101099.00;;;;10326021;28;20200;-76
2022/10/30 13:02:27;;;;;;;13.00;3.78;;;;;23.80;101106.00;;;;10298663;28;20188;-76
2022/10/30 13:07:49;;;;;;;13.40;4.20;;;;;24.10;101100.00;;;;10330077;28;20227;-77
2022/10/30 13:12:57;;;;;;;9.52;4.65;;;;;24.00;101096.00;;;;10330950;28;20619;-77
2022/10/30 13:18:15;;;;;;;11.48;4.53;;;;;23.70;101102.00;;;;10338920;28;20437;-77
2022/10/30 13:23:25;;;;;;;17.67;5.00;;;;;23.30;101093.00;;;;10351430;28;20211;-77
2022/10/30 13:28:33;;;;;;;11.23;4.22;;;;;23.00;101095.00;;;;10312724;28;20694;-76
2022/10/30 13:33:43;;;;;;;8.65;4.15;;;;;22.50;101099.00;;;;10312160;28;20215;-76
2022/10/30 13:38:57;;;;;;;9.35;4.35;;;;;22.50;101105.00;;;;10294083;28;20199;-77
2022/10/30 13:44:24;;;;;;;9.73;4.10;;;;;22.60;101102.00;;;;10304097;28;20212;-77
2022/10/30 13:49:49;;;;;;;8.82;4.20;;;;;22.70;101095.00;;;;10304431;28;20243;-76
2022/10/30 13:55:02;;;;;;;6.65;3.40;;;;;23.00;101084.00;;;;10305853;28;20204;-77
2022/10/30 14:00:20;;;;;;;9.50;4.25;;;;;24.00;101074.00;;;;10304212;28;20200;-76
2022/10/30 14:05:48;;;;;;;7.22;3.78;;;;;23.80;101077.00;;;;10303653;28;20230;-76
2022/10/30 14:10:56;;;;;;;9.13;3.72;;;;;23.10;101092.00;;;;10303425;28;20711;-77
2022/10/30 14:16:05;;;;;;;8.65;4.40;;;;;22.20;101099.00;;;;10254907;28;20189;-77
2022/10/30 14:21:38;;;;;;;11.52;4.38;;;;;22.50;101114.00;;;;10262786;28;20287;-76
2022/10/30 14:26:52;;;;;;;17.35;4.78;;;;;22.00;101128.00;;;;10278286;28;20192;-76
2022/10/30 14:31:55;;;;;;;11.32;4.20;;;;;22.00;101134.00;;;;10263068;28;20201;-77
2022/10/30 14:36:57;;;;;;;14.70;4.88;;;;;22.30;101138.00;;;;10325475;28;20850;-76
2022/10/30 14:42:17;;;;;;;10.85;5.45;;;;;21.80;101155.00;;;;10318359;28;20176;-76
2022/10/30 14:47:28;;;;;;;9.15;4.72;;;;;20.80;101171.00;;;;10334129;28;20189;-76
2022/10/30 14:52:53;;;;;;;12.75;5.13;;;;;20.40;101178.00;;;;10316585;28;20199;-76
2022/10/30 14:58:01;;;;;;;9.82;5.20;;;;;20.50;101196.00;;;;10283003;28;20201;-77
2022/10/30 15:03:17;;;;;;;11.00;4.88;;;;;20.10;101222.00;;;;10261194;28;20204;-75
2022/10/30 15:08:46;;;;;;;12.23;6.07;;;;;19.80;101226.00;;;;10292648;28;20220;-75
2022/10/30 15:13:55;;;;;;;14.88;6.05;;;;;19.50;101248.00;;;;10312676;28;20197;-76
2022/10/30 15:19:03;;;;;;;13.00;6.38;;;;;19.30;101248.00;;;;10321767;28;20672;-76
2022/10/30 15:24:12;;;;;;;17.40;7.95;;;;;19.30;101255.00;;;;10316183;28;20520;-76
2022/10/30 15:29:19;;;;;;;11.93;6.57;;;;;19.30;101261.00;;;;10301736;28;20214;-78
2022/10/30 15:34:25;;;;;;;15.57;6.75;;;;;19.10;101266.00;;;;10317691;28;20227;-78
2022/10/30 15:39:27;;;;;;;13.05;6.88;;;;;18.90;101260.00;;;;10322206;28;20177;-76
2022/10/30 15:44:36;;;;;;;18.13;7.53;;;;;18.70;101264.00;;;;10320773;28;20718;-78
2022/10/30 15:49:49;;;;;;;15.70;7.60;;;;;18.40;101263.00;;;;10311172;28;20691;-78
2022/10/30 15:54:58;;;;;;;14.30;7.13;;;;;18.20;101263.00;;;;10293060;28;20219;-78
2022/10/30 16:00:06;;;;;;;14.70;7.43;;;;;18.00;101271.00;;;;10269981;28;20211;-78
2022/10/30 16:05:21;;;;;;;11.48;6.75;;;;;17.80;101272.00;;;;10321335;28;20208;-78
2022/10/30 16:10:30;;;;;;;13.80;7.05;;;;;17.70;101264.00;;;;10316942;28;20220;-79
2022/10/30 16:15:34;;;;;;;17.60;7.22;;;;;17.50;101272.00;;;;10319325;28;20200;-78
2022/10/30 16:20:40;;;;;;;17.40;7.32;;;;;17.50;101269.00;;;;10289812;28;20341;-78
2022/10/30 16:25:43;;;;;;;22.05;7.30;;;;;17.40;101272.00;;;;10321898;28;20579;-78
2022/10/30 16:30:49;;;;;;;12.50;7.35;;;;;17.30;101281.00;;;;10304597;28;20582;-78
2022/10/30 16:35:51;;;;;;;14.32;6.80;;;;;17.30;101270.00;;;;10298617;28;20291;-78
2022/10/30 16:40:57;;;;;;;16.35;7.25;;;;;17.20;101276.00;;;;10282868;28;20674;-78
2022/10/30 16:46:14;;;;;;;13.82;6.38;;;;;17.10;101302.00;;;;10304910;28;20213;-77
2022/10/30 16:51:17;;;;;;;10.40;6.30;;;;;17.00;101307.00;;;;10288477;28;20686;-78
2022/10/30 16:56:30;;;;;;;11.07;6.30;;;;;17.00;101301.00;;;;10303610;28;20243;-78
2022/10/30 17:01:33;;;;;;;14.82;6.70;;;;;16.90;101309.00;;;;10304941;28;20262;-78
2022/10/30 17:06:41;;;;;;;14.60;6.72;;;;;16.80;101316.00;;;;10319156;28;20319;-77
2022/10/30 17:11:47;;;;;;;13.40;7.03;;;;;16.70;101308.00;;;;10318538;28;20410;-78
2022/10/30 17:16:55;;;;;;;13.23;6.38;;;;;16.50;101316.00;;;;10320019;28;20184;-78
2022/10/30 17:21:59;;;;;;;9.18;5.90;;;;;16.40;101306.00;;;;10280174;28;20196;-78
2022/10/30 17:27:04;;;;;;;8.98;5.57;;;;;16.20;101308.00;;;;10262853;28;20281;-78
2022/10/30 17:32:18;;;;;;;13.40;6.97;;;;;16.10;101324.00;;;;10278719;28;20211;-78
2022/10/30 17:37:20;;;;;;;11.43;6.30;;;;;16.00;101343.00;;;;10297221;28;20179;-79
2022/10/30 17:42:22;;;;;;;12.27;6.57;;;;;15.80;101357.00;;;;10313660;28;20188;-78
2022/10/30 17:47:23;;;;;;;14.10;7.13;;;;;15.60;101357.00;;;;10307592;28;20470;-78
2022/10/30 17:52:25;;;;;;;15.40;6.72;;;;;15.50;101358.00;;;;10301838;28;20204;-78
2022/10/30 17:57:27;;;;;;;13.00;6.30;;;;;15.40;101371.00;;;;10302161;28;20211;-78
2022/10/30 18:02:29;;;;;;;12.65;6.70;;;;;15.20;101362.00;;;;10302738;28;20181;-78
2022/10/30 18:07:31;;;;;;;19.07;7.80;;;;;15.10;101380.00;;;;10284792;28;20230;-78
2022/10/30 18:12:33;;;;;;;12.75;7.55;;;;;15.00;101387.00;;;;10303006;28;20212;-78
2022/10/30 18:17:35;;;;;;;10.55;6.55;;;;;15.00;101406.00;;;;10335243;28;20197;-77
2022/10/30 18:22:37;;;;;;;15.75;8.88;;;;;15.00;101414.00;;;;10286833;28;20832;-78
2022/10/30 18:27:39;;;;;;;12.45;7.53;;;;;15.00;101420.00;;;;10328548;28;20184;-78
2022/10/30 18:32:41;;;;;;;14.18;8.40;;;;;15.10;101424.00;;;;10294976;28;20231;-78
2022/10/30 18:37:43;;;;;;;16.13;8.43;;;;;15.20;101417.00;;;;10311717;28;20193;-77
2022/10/30 18:42:45;;;;;;;14.05;7.53;;;;;15.20;101428.00;;;;10294179;28;20217;-78
2022/10/30 18:47:48;;;;;;;10.50;7.45;;;;;15.20;101440.00;;;;10278033;28;20195;-78
2022/10/30 18:52:50;;;;;;;11.95;8.88;;;;;15.20;101440.00;;;;10334620;28;20200;-77
2022/10/30 18:57:52;;;;;;;12.85;9.48;;;;;15.10;101430.00;;;;10319155;28;20192;-78
2022/10/30 19:02:55;;;;;;;21.08;9.38;;;;;15.00;101444.00;;;;10317614;28;20200;-78
2022/10/30 19:07:59;;;;;;;17.88;8.57;;;;;15.00;101430.00;;;;10292438;28;20228;-78
2022/10/30 19:13:13;;;;;;;15.07;8.47;;;;;14.80;101428.00;;;;10295344;28;20208;-78
2022/10/30 19:18:16;;;;;;;11.67;7.97;;;;;14.70;101414.00;;;;10328426;28;20544;-78
2022/10/30 19:23:21;;;;;;;13.17;8.20;;;;;14.50;101403.00;;;;10282219;28;20212;-78
2022/10/30 19:28:24;;;;;;;25.43;14.97;;;;;14.40;101429.00;;;;10325714;28;20878;-78
2022/10/30 19:33:26;;;;;;;15.87;11.03;;;;;14.20;101425.00;;;;10309826;28;20192;-78
2022/10/30 19:38:29;;;;;;;16.97;12.27;;;;;14.10;101424.00;;;;10323831;28;20200;-78
2022/10/30 19:43:31;;;;;;;17.53;10.13;;;;;14.00;101418.00;;;;10320854;28;20627;-78
2022/10/30 19:48:33;;;;;;;15.63;10.30;;;;;14.00;101432.00;;;;10342126;28;20570;-78
2022/10/30 19:53:55;;;;;;;17.70;11.00;;;;;13.90;101432.00;;;;10307066;28;20196;-78
2022/10/30 19:58:57;;;;;;;19.43;9.90;;;;;13.90;101433.00;;;;10307210;28;20674;-78
2022/10/30 20:03:59;;;;;;;18.57;10.87;;;;;14.00;101436.00;;;;10299169;28;20200;-77
2022/10/30 20:09:01;;;;;;;17.80;10.90;;;;;14.00;101435.00;;;;10291816;28;20204;-78
2022/10/30 20:14:03;;;;;;;18.77;12.37;;;;;14.00;101449.00;;;;10295707;28;20216;-79
2022/10/30 20:19:31;;;;;;;23.00;14.17;;;;;14.00;101446.00;;;;10357490;28;20247;-78
2022/10/30 20:24:33;;;;;;;15.30;10.23;;;;;14.10;101452.00;;;;10300466;28;20212;-77
2022/10/30 20:29:42;;;;;;;26.90;14.80;;;;;14.10;101447.00;;;;10289804;28;20208;-78
2022/10/30 20:34:44;;;;;;;19.63;10.93;;;;;14.20;101473.00;;;;10310778;28;20652;-78
2022/10/30 20:39:48;;;;;;;19.87;13.00;;;;;14.20;101477.00;;;;10312152;28;20208;-78
2022/10/30 20:44:50;;;;;;;22.07;12.37;;;;;14.20;101473.00;;;;10310966;28;20192;-78
2022/10/30 20:49:52;;;;;;;14.33;10.73;;;;;14.30;101464.00;;;;10309443;28;20207;-78
2022/10/30 20:54:54;;;;;;;19.67;12.77;;;;;14.30;101478.00;;;;10323492;28;20208;-78
2022/10/30 20:59:56;;;;;;;17.67;11.43;;;;;14.30;101486.00;;;;10305933;28;20187;-77
2022/10/30 21:04:58;;;;;;;18.93;11.27;;;;;14.30;101487.00;;;;10336550;28;20221;-77
2022/10/30 21:10:20;;;;;;;13.93;8.63;;;;;14.20;101498.00;;;;10323420;28;20262;-77
2022/10/30 21:15:25;;;;;;;13.53;9.97;;;;;14.10;101496.00;;;;10320285;28;20228;-78
2022/10/30 21:20:27;;;;;;;20.00;12.43;;;;;14.10;101505.00;;;;10352608;28;20267;-77
2022/10/30 21:25:30;;;;;;;18.27;11.63;;;;;14.00;101505.00;;;;10322398;28;20195;-78
2022/10/30 21:30:33;;;;;;;16.60;10.03;;;;;14.00;101514.00;;;;10308185;28;20212;-78
2022/10/30 21:35:35;;;;;;;17.03;9.43;;;;;14.00;101530.00;;;;10308697;28;20185;-78
2022/10/30 21:40:36;;;;;;;15.37;9.33;;;;;14.10;101516.00;;;;10304743;28;20280;-78
2022/10/30 21:45:38;;;;;;;17.17;10.30;;;;;14.10;101517.00;;;;10285777;28;20193;-78
2022/10/30 21:50:41;;;;;;;19.10;9.60;;;;;14.10;101511.00;;;;10303916;28;20200;-79
2022/10/30 21:55:43;;;;;;;14.17;8.87;;;;;14.10;101514.00;;;;10303055;28;20567;-78
2022/10/30 22:00:45;;;;;;;19.07;9.57;;;;;14.10;101525.00;;;;10325733;28;20239;-77
2022/10/30 22:05:47;;;;;;;18.43;10.50;;;;;14.00;101521.00;;;;10312890;28;20216;-78
2022/10/30 22:10:49;;;;;;;14.63;8.73;;;;;14.00;101518.00;;;;10300750;28;20222;-78
2022/10/30 22:15:54;;;;;;;16.97;8.90;;;;;13.90;101533.00;;;;10344400;28;20179;-78
2022/10/30 22:21:05;;;;;;;18.20;9.13;;;;;13.80;101526.00;;;;10338423;28;20663;-78
2022/10/30 22:26:16;;;;;;;13.20;9.33;;;;;13.80;101535.00;;;;10314021;28;20275;-78
2022/10/30 22:31:19;;;;;;;16.47;8.90;;;;;13.70;101531.00;;;;10325981;28;20212;-78
2022/10/30 22:36:27;;;;;;;13.63;8.97;;;;;13.70;101528.00;;;;10310330;28;20661;-78
2022/10/30 22:41:30;;;;;;;14.17;9.57;;;;;13.60;101524.00;;;;10310075;28;20189;-78
2022/10/30 22:46:39;;;;;;;16.43;9.20;;;;;13.50;101536.00;;;;10295323;28;20648;-78
2022/10/30 22:51:41;;;;;;;19.00;10.13;;;;;13.50;101539.00;;;;10339115;28;20663;-78
2022/10/30 22:56:43;;;;;;;12.67;8.83;;;;;13.40;101539.00;;;;10304200;28;20206;-78
2022/10/30 23:01:45;;;;;;;17.87;9.87;;;;;13.40;101531.00;;;;10319365;28;20401;-78
2022/10/30 23:06:47;;;;;;;17.77;9.57;;;;;13.40;101537.00;;;;10282115;28;20324;-77
2022/10/30 23:11:49;;;;;;;16.60;8.50;;;;;13.30;101539.00;;;;10306882;28;20211;-77
2022/10/30 23:16:51;;;;;;;12.37;7.77;;;;;13.30;101532.00;;;;10324424;28;20295;-78
2022/10/30 23:21:57;;;;;;;12.23;8.10;;;;;13.40;101534.00;;;;10363989;28;20202;-78
2022/10/30 23:26:59;;;;;;;16.47;7.93;;;;;13.40;101521.00;;;;10304641;28;20204;-78
2022/10/30 23:32:01;;;;;;;12.00;7.67;;;;;13.40;101516.00;;;;10323994;28;20579;-77
2022/10/30 23:37:03;;;;;;;13.57;8.23;;;;;13.40;101541.00;;;;10273713;28;20315;-78
2022/10/30 23:42:04;;;;;;;12.30;8.43;;;;;13.30;101532.00;;;;10320762;28;20275;-78
2022/10/30 23:47:06;;;;;;;17.80;8.77;;;;;13.30;101536.00;;;;10272766;28;20188;-77
2022/10/30 23:52:08;;;;;;;14.40;8.80;;;;;13.20;101536.00;;;;10306246;28;20208;-77
2022/10/30 23:57:10;;;;;;;15.03;9.47;;;;;13.20;101525.00;;;;10305199;28;20204;-77
